Time;durP1;ratioP1;P1;durP2;ratioP2;P2;SDS_P1;SDS_P2;PMS_P1;PMS_P2;Temp;Humidity;BMP_temperature;BMP_pressure;BME280_temperature;BME280_humidity;BME280_pressure;Samples;Min_cycle;Max_cycle;Signal;HPM_P1;HPM_P2
2021/08/03 00:01:15;;;;;;;3.75;1.60;;;22.70;64.60;;;;;;5135659;27;20104;-72
2021/08/03 00:03:56;;;;;;;5.40;2.05;;;22.60;64.50;;;;;;5135474;27;20035;-73
2021/08/03 00:06:25;;;;;;;6.35;2.00;;;22.60;64.70;;;;;;5135418;27;20022;-73
2021/08/03 00:08:58;;;;;;;3.30;1.50;;;22.60;64.90;;;;;;5135485;27;20027;-73
2021/08/03 00:11:25;;;;;;;3.47;1.83;;;22.60;65.10;;;;;;5135511;27;20123;-73
2021/08/03 00:13:52;;;;;;;5.97;2.00;;;22.60;65.20;;;;;;5135327;27;20027;-72
2021/08/03 00:16:20;;;;;;;11.23;1.90;;;22.60;65.30;;;;;;5135392;27;20024;-73
2021/08/03 00:18:46;;;;;;;6.28;1.80;;;22.60;65.30;;;;;;5135596;27;20435;-73
2021/08/03 00:21:12;;;;;;;4.63;2.03;;;22.60;65.30;;;;;;5135009;27;20072;-73
2021/08/03 00:23:42;;;;;;;13.15;1.90;;;22.50;65.50;;;;;;5134957;27;20027;-72
2021/08/03 00:26:12;;;;;;;4.07;1.80;;;22.50;65.70;;;;;;5134855;27;20020;-72
2021/08/03 00:28:38;;;;;;;2.78;1.55;;;22.50;65.30;;;;;;5135099;27;20019;-72
2021/08/03 00:31:06;;;;;;;3.95;1.73;;;22.40;65.10;;;;;;5134973;27;20054;-73
2021/08/03 00:33:32;;;;;;;4.43;1.60;;;22.40;65.30;;;;;;5135104;27;20395;-73
2021/08/03 00:35:58;;;;;;;5.32;1.52;;;22.40;65.60;;;;;;5134863;27;20459;-73
2021/08/03 00:38:24;;;;;;;6.22;1.65;;;22.40;65.60;;;;;;5134931;27;20031;-73
2021/08/03 00:40:57;;;;;;;3.15;1.90;;;22.40;65.50;;;;;;5134647;27;20434;-73
2021/08/03 00:43:23;;;;;;;4.47;2.67;;;22.40;65.60;;;;;;5134570;27;20031;-73
2021/08/03 00:45:48;;;;;;;4.38;1.83;;;22.30;66.10;;;;;;5134336;27;20444;-73
2021/08/03 00:48:14;;;;;;;5.40;2.08;;;22.30;66.40;;;;;;5134657;27;20023;-73
2021/08/03 00:50:41;;;;;;;7.93;2.35;;;22.30;66.40;;;;;;5134603;27;20023;-72
2021/08/03 00:53:07;;;;;;;7.30;1.83;;;22.30;67.10;;;;;;5134691;27;20038;-73
2021/08/03 00:55:36;;;;;;;4.82;1.90;;;22.30;66.70;;;;;;5134382;27;20479;-73
2021/08/03 00:58:02;;;;;;;11.48;2.00;;;22.30;67.20;;;;;;5133139;27;20106;-73
2021/08/03 01:00:28;;;;;;;5.20;1.83;;;22.20;66.80;;;;;;5131632;27;20023;-73
2021/08/03 01:02:54;;;;;;;4.28;2.40;;;22.20;66.90;;;;;;5131667;27;20137;-73
2021/08/03 01:05:20;;;;;;;9.57;2.03;;;22.20;66.70;;;;;;5133121;27;20448;-73
2021/08/03 01:08:01;;;;;;;5.15;1.90;;;22.20;66.90;;;;;;5134553;27;20378;-73
2021/08/03 01:10:47;;;;;;;3.90;1.70;;;22.20;67.00;;;;;;5134517;27;20107;-72
2021/08/03 01:13:46;;;;;;;7.22;1.70;;;22.20;66.80;;;;;;5133543;27;20760;-72
2021/08/03 01:16:29;;;;;;;7.40;2.10;;;22.10;66.70;;;;;;5134183;27;20019;-73
2021/08/03 01:18:59;;;;;;;5.32;2.00;;;22.10;66.70;;;;;;5134240;27;20463;-73
2021/08/03 01:21:45;;;;;;;3.08;1.77;;;22.10;67.00;;;;;;5133931;27;20383;-73
2021/08/03 01:24:19;;;;;;;4.60;1.92;;;22.10;67.10;;;;;;5133803;27;20062;-73
2021/08/03 01:27:15;;;;;;;4.05;1.52;;;22.10;67.10;;;;;;5132512;27;20471;-73
2021/08/03 01:29:44;;;;;;;2.35;1.75;;;22.10;67.00;;;;;;5133833;27;20023;-73
2021/08/03 01:32:11;;;;;;;2.92;1.70;;;22.10;67.80;;;;;;5134080;27;20051;-73
2021/08/03 01:34:39;;;;;;;2.53;1.63;;;22.10;67.30;;;;;;5132680;27;20019;-72
2021/08/03 01:37:06;;;;;;;4.97;1.70;;;22.10;67.10;;;;;;5133164;27;20019;-72
2021/08/03 01:39:36;;;;;;;3.47;1.70;;;22.00;67.10;;;;;;5133748;28;20352;-73
2021/08/03 01:42:05;;;;;;;4.15;1.90;;;22.10;67.40;;;;;;5134082;28;20027;-72
2021/08/03 01:44:34;;;;;;;4.85;2.00;;;22.00;67.30;;;;;;5133594;28;20083;-72
2021/08/03 01:47:01;;;;;;;3.17;1.70;;;22.00;67.30;;;;;;5134062;28;20079;-73
2021/08/03 01:49:28;;;;;;;3.47;1.70;;;22.00;67.20;;;;;;5133869;28;20106;-73
2021/08/03 01:51:55;;;;;;;3.38;1.67;;;22.00;67.20;;;;;;5133935;28;20019;-73
2021/08/03 01:54:23;;;;;;;6.38;1.85;;;21.90;67.20;;;;;;5133849;28;20026;-73
2021/08/03 01:56:49;;;;;;;5.20;2.00;;;21.90;67.20;;;;;;5133709;28;20015;-72
2021/08/03 01:59:17;;;;;;;7.75;2.00;;;21.90;67.10;;;;;;5133636;28;20027;-73
2021/08/03 02:01:44;;;;;;;5.40;1.50;;;21.90;67.20;;;;;;5133574;28;20030;-73
2021/08/03 02:04:12;;;;;;;4.45;1.90;;;21.90;67.20;;;;;;5133682;28;20088;-73
2021/08/03 02:06:38;;;;;;;2.95;1.70;;;21.90;67.20;;;;;;5133622;28;20022;-72
2021/08/03 02:09:07;;;;;;;3.20;1.50;;;21.90;67.20;;;;;;5133450;28;20102;-73
2021/08/03 02:11:36;;;;;;;5.25;1.90;;;21.90;67.20;;;;;;5133253;28;20043;-73
2021/08/03 02:14:02;;;;;;;5.13;1.42;;;21.90;67.10;;;;;;5133357;28;20047;-73
2021/08/03 02:16:28;;;;;;;5.10;1.70;;;21.90;67.20;;;;;;5133486;28;20019;-73
2021/08/03 02:18:54;;;;;;;7.32;1.90;;;21.90;67.20;;;;;;5133485;28;20475;-72
2021/08/03 02:21:22;;;;;;;3.38;1.70;;;21.90;67.20;;;;;;5133602;28;20031;-72
2021/08/03 02:23:48;;;;;;;5.30;1.80;;;21.90;67.30;;;;;;5133450;28;20545;-73
2021/08/03 02:26:14;;;;;;;2.05;1.63;;;21.90;67.30;;;;;;5133123;28;20024;-73
2021/08/03 02:28:41;;;;;;;4.22;1.80;;;21.90;67.30;;;;;;5133621;28;20023;-73
2021/08/03 02:31:22;;;;;;;4.95;1.80;;;21.90;67.30;;;;;;5133430;28;20026;-73
2021/08/03 02:34:06;;;;;;;3.90;1.97;;;21.90;67.20;;;;;;5133579;28;20030;-73
2021/08/03 02:36:42;;;;;;;4.13;1.80;;;21.90;67.00;;;;;;5133484;28;20535;-73
2021/08/03 02:39:08;;;;;;;8.32;2.00;;;21.90;66.90;;;;;;5133478;28;20046;-73
2021/08/03 02:41:35;;;;;;;3.08;1.95;;;21.90;66.80;;;;;;5133422;28;20428;-73
2021/08/03 02:44:03;;;;;;;4.13;1.92;;;21.80;66.70;;;;;;5133334;28;20083;-72
2021/08/03 02:46:29;;;;;;;3.42;2.10;;;21.80;66.80;;;;;;5133069;28;20023;-73
2021/08/03 02:49:07;;;;;;;7.40;1.55;;;21.80;66.80;;;;;;5134634;27;20061;-73
2021/08/03 02:51:36;;;;;;;3.47;1.77;;;21.80;66.80;;;;;;5137204;27;20110;-72
2021/08/03 02:54:17;;;;;;;8.68;2.05;;;21.80;66.70;;;;;;5136960;27;20015;-73
2021/08/03 02:56:47;;;;;;;6.20;2.67;;;21.80;66.80;;;;;;5136474;27;20030;-73
2021/08/03 02:59:15;;;;;;;5.32;1.80;;;21.80;67.50;;;;;;5137000;27;20023;-72
2021/08/03 03:01:43;;;;;;;3.60;1.67;;;21.80;66.90;;;;;;5136686;27;20027;-73
2021/08/03 03:04:20;;;;;;;6.28;2.00;;;21.80;66.80;;;;;;5136519;27;20112;-73
2021/08/03 03:06:52;;;;;;;3.75;1.67;;;21.70;66.80;;;;;;5135339;27;20019;-73
2021/08/03 03:09:24;;;;;;;3.45;1.90;;;21.80;67.00;;;;;;5136951;27;20028;-73
2021/08/03 03:11:54;;;;;;;3.15;1.85;;;21.70;67.10;;;;;;5136221;27;20055;-73
2021/08/03 03:14:23;;;;;;;4.38;1.70;;;21.70;67.40;;;;;;5136877;27;20023;-73
2021/08/03 03:16:50;;;;;;;5.80;1.83;;;21.70;67.90;;;;;;5136487;27;20023;-72
2021/08/03 03:19:20;;;;;;;3.08;1.85;;;21.70;68.10;;;;;;5136419;27;20076;-73
2021/08/03 03:21:48;;;;;;;3.67;1.80;;;21.60;68.30;;;;;;5136689;27;20048;-73
2021/08/03 03:24:15;;;;;;;4.35;1.77;;;21.60;68.20;;;;;;5136299;27;20117;-73
2021/08/03 03:26:42;;;;;;;3.05;1.83;;;21.60;68.10;;;;;;5136353;27;20146;-73
2021/08/03 03:29:08;;;;;;;6.43;2.05;;;21.60;68.00;;;;;;5136497;27;20401;-73
2021/08/03 03:31:35;;;;;;;5.07;1.98;;;21.60;67.80;;;;;;5136266;27;20022;-73
2021/08/03 03:34:06;;;;;;;6.07;2.05;;;21.60;67.70;;;;;;5136179;27;20027;-73
2021/08/03 03:36:34;;;;;;;2.20;1.63;;;21.60;67.70;;;;;;5136156;27;20426;-72
2021/08/03 03:39:01;;;;;;;3.05;1.77;;;21.60;67.50;;;;;;5135935;27;20357;-73
2021/08/03 03:41:28;;;;;;;5.88;2.38;;;21.60;67.80;;;;;;5136103;27;20080;-72
2021/08/03 03:43:55;;;;;;;5.07;2.03;;;21.60;67.80;;;;;;5135971;27;20442;-73
2021/08/03 03:46:25;;;;;;;4.20;1.85;;;21.50;67.70;;;;;;5135784;27;20030;-73
2021/08/03 03:48:59;;;;;;;3.78;2.03;;;21.50;68.10;;;;;;5135649;27;20079;-72
2021/08/03 03:51:29;;;;;;;3.60;1.80;;;21.50;68.50;;;;;;5135825;27;20051;-73
2021/08/03 03:53:58;;;;;;;5.05;1.92;;;21.50;68.60;;;;;;5135651;27;20016;-72
2021/08/03 03:56:41;;;;;;;6.63;2.13;;;21.40;68.50;;;;;;5135558;27;20543;-73
2021/08/03 03:59:09;;;;;;;5.00;1.92;;;21.40;68.60;;;;;;5135180;27;20055;-73
2021/08/03 04:01:36;;;;;;;5.28;1.80;;;21.40;68.60;;;;;;5135700;27;20379;-73
2021/08/03 04:04:05;;;;;;;4.80;1.95;;;21.40;68.60;;;;;;5135484;27;20372;-73
2021/08/03 04:06:33;;;;;;;4.20;1.90;;;21.40;68.60;;;;;;5135581;27;20022;-73
2021/08/03 04:08:59;;;;;;;4.38;2.00;;;21.30;68.50;;;;;;5135371;27;20072;-73
2021/08/03 04:11:25;;;;;;;5.05;2.05;;;21.40;68.70;;;;;;5134971;27;20047;-72
2021/08/03 04:13:51;;;;;;;3.13;1.85;;;21.30;68.50;;;;;;5135274;27;20019;-72
2021/08/03 04:16:18;;;;;;;3.03;1.90;;;21.30;68.40;;;;;;5135435;27;20023;-72
2021/08/03 04:18:44;;;;;;;5.85;2.30;;;21.30;68.40;;;;;;5135088;27;20379;-73
2021/08/03 04:21:09;;;;;;;4.60;2.10;;;21.30;68.30;;;;;;5135286;27;20015;-73
2021/08/03 04:23:35;;;;;;;6.82;1.92;;;21.30;68.20;;;;;;5135114;27;20039;-73
2021/08/03 04:26:01;;;;;;;9.68;1.98;;;21.30;68.20;;;;;;5135087;27;20023;-73
2021/08/03 04:28:28;;;;;;;4.10;2.15;;;21.30;68.50;;;;;;5135135;27;20034;-73
2021/08/03 04:30:53;;;;;;;3.72;1.85;;;21.30;68.60;;;;;;5134841;27;20023;-73
2021/08/03 04:33:19;;;;;;;6.47;2.30;;;21.30;68.80;;;;;;5134659;27;20030;-73
2021/08/03 04:35:45;;;;;;;7.05;2.53;;;21.30;69.10;;;;;;5134552;27;20068;-73
2021/08/03 04:38:11;;;;;;;7.82;2.70;;;21.30;69.20;;;;;;5135070;27;20019;-73
2021/08/03 04:40:36;;;;;;;4.95;2.40;;;21.30;69.40;;;;;;5134911;27;20027;-73
2021/08/03 04:43:02;;;;;;;4.15;2.20;;;21.30;69.60;;;;;;5134595;27;20042;-73
2021/08/03 04:45:28;;;;;;;6.55;2.53;;;21.40;69.70;;;;;;5134690;27;20409;-73
2021/08/03 04:47:54;;;;;;;4.95;2.20;;;21.30;69.60;;;;;;5134548;27;20352;-73
2021/08/03 04:50:23;;;;;;;8.20;1.92;;;21.40;69.80;;;;;;5134510;27;20027;-72
2021/08/03 04:52:49;;;;;;;6.38;2.17;;;21.40;70.00;;;;;;5134687;27;20076;-73
2021/08/03 04:55:15;;;;;;;7.07;2.95;;;21.40;70.10;;;;;;5134690;27;20019;-73
2021/08/03 04:57:42;;;;;;;9.85;2.45;;;21.40;70.00;;;;;;5134381;27;20027;-73
2021/08/03 05:00:09;;;;;;;5.65;2.15;;;21.40;70.10;;;;;;5134462;27;20492;-73
2021/08/03 05:02:35;;;;;;;4.07;2.10;;;21.50;70.00;;;;;;5134484;27;20073;-73
2021/08/03 05:05:02;;;;;;;4.72;1.67;;;21.40;69.70;;;;;;5133247;27;20471;-73
2021/08/03 05:07:28;;;;;;;5.00;1.92;;;21.40;69.50;;;;;;5133630;27;20079;-73
2021/08/03 05:09:58;;;;;;;3.65;1.80;;;21.50;69.40;;;;;;5133417;27;20110;-73
2021/08/03 05:12:24;;;;;;;5.28;1.70;;;21.50;69.20;;;;;;5132170;27;20047;-73
2021/08/03 05:14:50;;;;;;;4.22;1.70;;;21.50;68.90;;;;;;5132493;27;20030;-73
2021/08/03 05:17:15;;;;;;;3.42;2.00;;;21.50;68.60;;;;;;5132095;27;20038;-73
2021/08/03 05:19:41;;;;;;;5.35;1.90;;;21.50;68.60;;;;;;5131302;27;20016;-73
2021/08/03 05:22:07;;;;;;;6.18;1.77;;;21.60;68.60;;;;;;5133585;27;20031;-73
2021/08/03 05:24:33;;;;;;;3.22;1.75;;;21.60;68.10;;;;;;5132272;27;20112;-73
2021/08/03 05:27:00;;;;;;;3.88;1.90;;;21.60;67.90;;;;;;5133172;27;20047;-74
2021/08/03 05:29:27;;;;;;;4.18;1.95;;;21.70;67.60;;;;;;5132329;27;20481;-73
2021/08/03 05:31:53;;;;;;;4.30;2.00;;;21.70;67.50;;;;;;5133855;27;20152;-73
2021/08/03 05:34:19;;;;;;;5.43;1.80;;;21.70;67.60;;;;;;5133986;27;20094;-73
2021/08/03 05:36:44;;;;;;;4.60;1.70;;;21.80;67.80;;;;;;5133565;28;20034;-73
2021/08/03 05:39:12;;;;;;;6.85;1.80;;;21.80;67.50;;;;;;5133867;28;20163;-74
2021/08/03 05:41:38;;;;;;;6.30;1.70;;;21.90;67.30;;;;;;5133600;28;20075;-74
2021/08/03 05:44:04;;;;;;;4.95;1.73;;;21.90;67.20;;;;;;5133031;27;20093;-73
2021/08/03 05:46:31;;;;;;;5.13;1.60;;;21.90;67.20;;;;;;5133743;28;20035;-73
2021/08/03 05:48:57;;;;;;;6.35;2.08;;;22.00;67.10;;;;;;5133633;28;20043;-74
2021/08/03 05:51:22;;;;;;;5.63;1.70;;;22.00;66.90;;;;;;5132455;28;20423;-74
2021/08/03 05:53:48;;;;;;;2.40;1.77;;;22.10;67.00;;;;;;5133872;28;20460;-74
2021/08/03 05:56:14;;;;;;;4.45;1.95;;;22.10;67.10;;;;;;5133723;28;20027;-74
2021/08/03 05:58:39;;;;;;;4.57;1.75;;;22.10;67.10;;;;;;5133663;28;20024;-74
2021/08/03 06:01:05;;;;;;;3.25;1.70;;;22.20;66.80;;;;;;5133832;28;20038;-74
2021/08/03 06:03:31;;;;;;;6.28;2.75;;;22.20;66.60;;;;;;5133767;28;20028;-74
2021/08/03 06:05:57;;;;;;;3.80;1.70;;;22.20;66.50;;;;;;5132217;28;20038;-74
2021/08/03 06:08:25;;;;;;;6.20;2.17;;;22.20;66.40;;;;;;5130321;28;20417;-74
2021/08/03 06:10:52;;;;;;;6.25;1.92;;;22.20;66.30;;;;;;5129042;28;20035;-74
2021/08/03 06:13:21;;;;;;;3.38;2.08;;;22.20;66.40;;;;;;5131475;28;20441;-74
2021/08/03 06:15:49;;;;;;;4.95;1.75;;;22.30;66.60;;;;;;5133071;28;20482;-73
2021/08/03 06:18:35;;;;;;;3.70;1.90;;;22.30;66.20;;;;;;5133129;28;20034;-74
2021/08/03 06:21:02;;;;;;;4.63;1.80;;;22.40;66.50;;;;;;5133063;28;20098;-74
2021/08/03 06:23:28;;;;;;;6.20;2.15;;;22.40;66.40;;;;;;5135529;27;20039;-75
2021/08/03 06:25:58;;;;;;;3.90;1.70;;;22.40;66.30;;;;;;5137524;27;20027;-75
2021/08/03 06:28:24;;;;;;;3.15;1.85;;;22.40;66.10;;;;;;5137247;27;20080;-74
2021/08/03 06:30:51;;;;;;;6.47;1.80;;;22.50;66.10;;;;;;5137412;27;20023;-74
2021/08/03 06:33:20;;;;;;;4.90;1.67;;;22.50;66.50;;;;;;5137108;27;20027;-74
2021/08/03 06:35:47;;;;;;;3.47;1.90;;;22.60;65.70;;;;;;5134743;27;20030;-74
2021/08/03 06:38:14;;;;;;;7.35;2.05;;;22.60;65.50;;;;;;5135969;27;20023;-73
2021/08/03 06:40:58;;;;;;;8.27;2.00;;;22.70;65.60;;;;;;5136479;27;20581;-74
2021/08/03 06:43:25;;;;;;;5.50;1.85;;;22.70;65.50;;;;;;5135703;27;20106;-73
2021/08/03 06:46:06;;;;;;;4.78;1.95;;;22.80;65.10;;;;;;5136080;27;20160;-74
2021/08/03 06:48:37;;;;;;;6.90;2.25;;;22.90;65.00;;;;;;5136116;27;20019;-74
2021/08/03 06:51:09;;;;;;;3.60;2.08;;;22.90;64.70;;;;;;5136444;27;20050;-74
2021/08/03 06:53:37;;;;;;;2.58;1.85;;;22.90;64.80;;;;;;5136884;27;20035;-75
2021/08/03 06:56:03;;;;;;;5.20;1.80;;;23.00;64.70;;;;;;5137008;27;20034;-75
2021/08/03 06:58:41;;;;;;;3.22;1.90;;;23.00;64.40;;;;;;5136450;27;20071;-74
2021/08/03 07:01:14;;;;;;;2.83;1.90;;;23.10;64.40;;;;;;5136624;27;20023;-72
2021/08/03 07:03:46;;;;;;;7.40;2.13;;;23.10;64.30;;;;;;5136463;27;20027;-71
2021/08/03 07:06:13;;;;;;;;;;;23.20;64.00;;;;;;5136773;27;20034;-72
2021/08/03 07:08:40;;;;;;;4.88;1.98;;;23.20;63.90;;;;;;5136709;27;19910;-72
2021/08/03 07:11:07;;;;;;;5.85;2.40;;;23.20;63.90;;;;;;5135297;27;20054;-72
2021/08/03 07:13:33;;;;;;;5.38;2.22;;;23.30;64.00;;;;;;5136259;27;20030;-72
2021/08/03 07:16:03;;;;;;;3.83;1.90;;;23.30;63.90;;;;;;5136571;27;20126;-72
2021/08/03 07:18:29;;;;;;;6.43;1.90;;;23.40;63.80;;;;;;5136633;27;20031;-74
2021/08/03 07:20:56;;;;;;;5.78;1.75;;;23.40;63.80;;;;;;5136253;27;20046;-73
2021/08/03 07:23:23;;;;;;;5.78;2.03;;;23.50;63.70;;;;;;5136375;27;20026;-74
2021/08/03 07:25:51;;;;;;;5.10;1.88;;;23.50;63.50;;;;;;5136255;27;20055;-74
2021/08/03 07:28:18;;;;;;;10.13;1.92;;;23.60;63.70;;;;;;5134726;27;20033;-74
2021/08/03 07:30:44;;;;;;;4.25;1.88;;;23.60;63.50;;;;;;5136182;27;20026;-74
2021/08/03 07:33:13;;;;;;;4.60;1.80;;;23.60;63.20;;;;;;5136092;27;20457;-74
2021/08/03 07:35:41;;;;;;;4.70;1.77;;;23.70;63.10;;;;;;5134782;27;20550;-74
2021/08/03 07:38:06;;;;;;;3.22;1.85;;;23.80;63.20;;;;;;5136014;27;20016;-74
2021/08/03 07:40:32;;;;;;;3.78;1.65;;;23.80;63.10;;;;;;5136031;27;20034;-74
2021/08/03 07:42:59;;;;;;;3.25;2.00;;;23.80;63.00;;;;;;5135728;27;20130;-75
2021/08/03 07:45:25;;;;;;;5.60;1.77;;;23.90;62.80;;;;;;5135058;27;20032;-74
2021/08/03 07:47:51;;;;;;;6.72;2.17;;;23.90;62.40;;;;;;5134655;27;20023;-74
2021/08/03 07:50:17;;;;;;;4.30;2.00;;;24.00;62.50;;;;;;5135595;27;20034;-74
2021/08/03 07:52:42;;;;;;;4.22;1.88;;;24.00;62.50;;;;;;5135513;27;20027;-74
2021/08/03 07:55:08;;;;;;;5.25;2.17;;;24.10;62.70;;;;;;5133231;27;20023;-74
2021/08/03 07:57:34;;;;;;;4.95;1.50;;;24.10;63.00;;;;;;5131333;27;20030;-73
2021/08/03 08:00:00;;;;;;;4.20;2.00;;;24.20;61.80;;;;;;5131511;27;20391;-73
2021/08/03 08:02:25;;;;;;;4.32;2.10;;;24.30;61.60;;;;;;5133295;27;20016;-74
2021/08/03 08:04:51;;;;;;;4.20;2.00;;;24.30;61.60;;;;;;5132105;27;20045;-73
2021/08/03 08:07:17;;;;;;;4.47;2.13;;;24.30;61.80;;;;;;5132254;27;20019;-73
2021/08/03 08:09:42;;;;;;;5.25;2.03;;;24.40;61.70;;;;;;5134464;27;20027;-73
2021/08/03 08:12:08;;;;;;;4.72;1.77;;;24.50;61.70;;;;;;5135045;27;20042;-73
2021/08/03 08:14:34;;;;;;;3.88;2.00;;;24.50;61.10;;;;;;5135185;27;20028;-73
2021/08/03 08:17:01;;;;;;;6.35;2.17;;;24.60;61.40;;;;;;5135236;27;20015;-73
2021/08/03 08:19:27;;;;;;;8.60;2.15;;;24.70;61.10;;;;;;5135280;27;20027;-72
2021/08/03 08:21:53;;;;;;;6.57;2.10;;;24.70;60.70;;;;;;5135516;27;20122;-73
2021/08/03 08:24:19;;;;;;;5.78;2.35;;;24.80;60.10;;;;;;5135165;27;20093;-73
2021/08/03 08:26:46;;;;;;;5.72;2.10;;;24.90;58.90;;;;;;5135361;27;20015;-73
2021/08/03 08:29:16;;;;;;;5.80;1.92;;;24.90;58.40;;;;;;5135214;27;20027;-73
2021/08/03 08:31:43;;;;;;;3.50;1.88;;;24.90;58.50;;;;;;5135360;27;20027;-73
2021/08/03 08:34:10;;;;;;;3.05;1.70;;;24.90;58.60;;;;;;5135126;27;20023;-73
2021/08/03 08:36:35;;;;;;;5.25;2.25;;;24.90;59.20;;;;;;5135382;27;20509;-73
2021/08/03 08:39:01;;;;;;;6.68;2.28;;;24.90;59.20;;;;;;5135176;27;20058;-73
2021/08/03 08:41:27;;;;;;;4.20;1.83;;;24.90;59.30;;;;;;5134845;27;20351;-73
2021/08/03 08:43:55;;;;;;;5.32;1.98;;;24.90;59.20;;;;;;5134766;27;20043;-73
2021/08/03 08:46:21;;;;;;;3.60;2.00;;;24.90;59.00;;;;;;5134788;27;20042;-73
2021/08/03 08:48:48;;;;;;;5.10;1.60;;;24.90;58.70;;;;;;5134795;27;20479;-73
2021/08/03 08:51:14;;;;;;;6.25;2.17;;;24.90;58.80;;;;;;5134858;27;20026;-73
2021/08/03 08:53:40;;;;;;;6.05;2.00;;;24.90;58.80;;;;;;5134944;27;20356;-73
2021/08/03 08:56:06;;;;;;;5.45;1.98;;;25.00;59.00;;;;;;5134547;27;20030;-73
2021/08/03 08:58:35;;;;;;;7.35;1.92;;;25.00;58.40;;;;;;5134858;27;20030;-73
2021/08/03 09:01:02;;;;;;;7.13;2.30;;;25.10;56.90;;;;;;5134761;27;20030;-73
2021/08/03 09:03:28;;;;;;;7.93;2.05;;;25.20;57.10;;;;;;5134795;27;20030;-73
2021/08/03 09:06:02;;;;;;;4.10;1.80;;;25.30;57.20;;;;;;5134389;27;20096;-73
2021/08/03 09:08:39;;;;;;;6.85;2.40;;;25.30;57.40;;;;;;5134391;27;20387;-74
2021/08/03 09:11:13;;;;;;;4.32;1.75;;;25.40;56.70;;;;;;5134247;27;20042;-73
2021/08/03 09:13:48;;;;;;;8.30;2.22;;;;;;;;;;5134710;27;20076;-74
2021/08/03 09:16:14;;;;;;;5.28;2.00;;;25.60;56.50;;;;;;5134381;27;20360;-73
2021/08/03 09:18:43;;;;;;;5.47;2.00;;;25.70;57.00;;;;;;5134365;27;20043;-74
2021/08/03 09:21:20;;;;;;;4.60;1.85;;;25.70;56.20;;;;;;5134386;27;20025;-74
2021/08/03 09:23:58;;;;;;;7.38;2.38;;;25.80;55.90;;;;;;5134192;27;20535;-74
2021/08/03 09:26:46;;;;;;;4.28;1.90;;;25.90;54.40;;;;;;5134202;27;20417;-74
2021/08/03 09:29:13;;;;;;;7.25;1.90;;;25.90;54.90;;;;;;5134273;27;20062;-73
2021/08/03 09:31:49;;;;;;;5.05;1.70;;;26.00;55.00;;;;;;5134310;27;20053;-73
2021/08/03 09:34:16;;;;;;;5.72;2.25;;;26.10;55.30;;;;;;5134096;27;20102;-74
2021/08/03 09:36:56;;;;;;;6.18;1.95;;;26.10;54.50;;;;;;5134126;28;20027;-73
2021/08/03 09:39:36;;;;;;;5.38;1.83;;;26.20;54.20;;;;;;5134220;28;20464;-73
2021/08/03 09:42:18;;;;;;;4.82;1.77;;;26.30;54.30;;;;;;5132671;28;20048;-73
2021/08/03 09:45:07;;;;;;;6.32;1.90;;;26.30;54.30;;;;;;5133726;28;20172;-73
2021/08/03 09:47:36;;;;;;;8.98;2.00;;;26.40;53.70;;;;;;5134226;27;20027;-73
2021/08/03 09:50:08;;;;;;;4.85;1.50;;;26.40;52.90;;;;;;5134015;28;20037;-73
2021/08/03 09:52:38;;;;;;;5.95;2.40;;;26.50;52.60;;;;;;5133861;28;20027;-73
2021/08/03 09:55:16;;;;;;;9.27;1.85;;;26.50;52.80;;;;;;5133104;27;20076;-73
2021/08/03 09:57:43;;;;;;;9.57;2.08;;;26.50;52.00;;;;;;5134136;27;20019;-74
2021/08/03 10:00:28;;;;;;;8.20;2.10;;;26.50;52.10;;;;;;5133523;27;20026;-74
2021/08/03 10:02:55;;;;;;;4.45;1.60;;;26.60;52.50;;;;;;5133200;27;20051;-74
2021/08/03 10:05:22;;;;;;;7.85;2.35;;;26.70;52.90;;;;;;5135702;27;20102;-75
2021/08/03 10:07:48;;;;;;;5.70;1.80;;;26.80;52.70;;;;;;5137745;27;20007;-73
2021/08/03 10:10:14;;;;;;;5.72;2.08;;;26.90;51.60;;;;;;5135778;27;20057;-74
2021/08/03 10:12:40;;;;;;;7.40;2.00;;;26.90;49.80;;;;;;5134500;27;20039;-74
2021/08/03 10:15:10;;;;;;;5.18;1.60;;;27.00;50.00;;;;;;5134480;27;20050;-73
2021/08/03 10:17:37;;;;;;;8.10;1.90;;;27.00;51.20;;;;;;5136517;27;20106;-73
2021/08/03 10:20:04;;;;;;;6.07;1.77;;;27.10;51.60;;;;;;5137659;27;20022;-73
2021/08/03 10:22:58;;;;;;;9.20;1.80;;;27.20;52.30;;;;;;5135978;27;20391;-73
2021/08/03 10:25:38;;;;;;;12.48;1.90;;;27.30;51.80;;;;;;5130810;27;20047;-74
2021/08/03 10:28:28;;;;;;;6.57;2.00;;;27.30;51.60;;;;;;5137601;27;20024;-73
2021/08/03 10:30:55;;;;;;;7.63;1.65;;;27.20;51.40;;;;;;5129670;27;20472;-74
2021/08/03 10:33:46;;;;;;;4.75;1.95;;;27.20;51.50;;;;;;5123107;27;20020;-74
2021/08/03 10:36:37;;;;;;;5.18;2.00;;;27.20;50.80;;;;;;5108478;28;20042;-74
2021/08/03 10:39:19;;;;;;;5.60;1.90;;;27.20;50.80;;;;;;5114652;28;20088;-73
2021/08/03 10:42:06;;;;;;;6.45;1.70;;;27.10;51.00;;;;;;5114401;28;20042;-74
2021/08/03 10:44:40;;;;;;;9.27;1.95;;;27.00;51.10;;;;;;5113280;28;20139;-73
2021/08/03 10:47:36;;;;;;;5.90;2.00;;;26.90;51.50;;;;;;5114963;27;20020;-74
2021/08/03 10:50:08;;;;;;;4.20;1.90;;;26.90;51.80;;;;;;5115598;28;20031;-73
2021/08/03 10:52:46;;;;;;;8.23;2.28;;;27.00;52.10;;;;;;5115411;28;20026;-73
2021/08/03 10:55:36;;;;;;;5.80;2.22;;;27.10;52.80;;;;;;5113694;28;20077;-73
2021/08/03 10:58:13;;;;;;;4.65;1.98;;;27.20;51.70;;;;;;5112953;28;20027;-74
2021/08/03 11:01:01;;;;;;;4.97;1.98;;;27.30;50.50;;;;;;5115193;28;20019;-73
2021/08/03 11:03:33;;;;;;;5.07;1.65;;;27.30;50.40;;;;;;5115643;28;20020;-74
2021/08/03 11:06:18;;;;;;;5.60;1.75;;;27.30;50.50;;;;;;5115833;28;20383;-73
2021/08/03 11:08:45;;;;;;;5.57;1.85;;;27.20;50.40;;;;;;5114913;28;20047;-73
2021/08/03 11:11:23;;;;;;;6.10;1.95;;;27.10;50.90;;;;;;5115165;28;20047;-73
2021/08/03 11:14:06;;;;;;;6.05;2.05;;;27.20;51.50;;;;;;5115622;28;20093;-73
2021/08/03 11:16:32;;;;;;;12.20;2.20;;;27.30;51.40;;;;;;5115819;28;20426;-73
2021/08/03 11:19:00;;;;;;;6.07;2.03;;;27.40;51.60;;;;;;5115860;28;20035;-73
2021/08/03 11:21:30;;;;;;;5.78;1.90;;;27.40;51.40;;;;;;5115266;28;20095;-73
2021/08/03 11:23:59;;;;;;;6.55;2.00;;;27.50;51.50;;;;;;5115458;27;20107;-73
2021/08/03 11:26:27;;;;;;;5.47;2.13;;;27.50;51.60;;;;;;5115725;28;20051;-73
2021/08/03 11:28:59;;;;;;;4.05;1.95;;;27.50;51.50;;;;;;5115804;28;20423;-75
2021/08/03 11:31:46;;;;;;;6.70;1.88;;;27.50;51.70;;;;;;5115952;28;20027;-73
2021/08/03 11:34:18;;;;;;;9.80;2.28;;;27.50;52.00;;;;;;5115336;28;20076;-73
2021/08/03 11:37:00;;;;;;;7.40;2.00;;;27.60;52.80;;;;;;5115764;28;20020;-75
2021/08/03 11:39:29;;;;;;;6.47;1.90;;;27.70;52.40;;;;;;5115511;28;20031;-73
2021/08/03 11:41:55;;;;;;;4.88;2.05;;;27.80;52.40;;;;;;5115472;28;20376;-72
2021/08/03 11:44:22;;;;;;;5.97;2.17;;;27.80;51.10;;;;;;5115369;28;20036;-72
2021/08/03 11:46:57;;;;;;;4.68;1.85;;;27.90;51.30;;;;;;5115706;28;20019;-72
2021/08/03 11:49:46;;;;;;;7.53;2.00;;;27.90;51.50;;;;;;5115472;28;20106;-73
2021/08/03 11:52:21;;;;;;;8.43;2.10;;;27.90;51.20;;;;;;5115412;28;20628;-73
2021/08/03 11:54:55;;;;;;;5.32;2.25;;;27.90;51.00;;;;;;5115220;28;20016;-74
2021/08/03 11:57:36;;;;;;;6.03;1.60;;;27.90;51.10;;;;;;5113962;28;20024;-74
2021/08/03 12:00:09;;;;;;;5.60;2.10;;;28.00;51.20;;;;;;5115142;28;20028;-72
2021/08/03 12:02:36;;;;;;;7.55;1.88;;;28.10;49.90;;;;;;5114915;28;20422;-73
2021/08/03 12:05:04;;;;;;;5.47;1.90;;;28.10;50.50;;;;;;5114965;28;20039;-73
2021/08/03 12:07:30;;;;;;;7.97;2.20;;;28.10;50.50;;;;;;5115052;28;20016;-73
2021/08/03 12:09:56;;;;;;;6.93;1.90;;;28.00;50.50;;;;;;5115037;28;20080;-73
2021/08/03 12:12:21;;;;;;;6.50;2.08;;;28.00;50.60;;;;;;5114909;28;20050;-73
2021/08/03 12:14:47;;;;;;;5.40;1.83;;;28.00;50.50;;;;;;5114756;28;20034;-73
2021/08/03 12:17:31;;;;;;;4.25;1.80;;;;;;;;;;5115114;28;20123;-72
2021/08/03 12:20:03;;;;;;;7.13;2.00;;;28.00;48.60;;;;;;5114720;28;20543;-72
2021/08/03 12:22:30;;;;;;;9.18;2.00;;;28.00;49.50;;;;;;5114669;28;20023;-73
2021/08/03 12:25:02;;;;;;;6.72;1.95;;;28.00;49.90;;;;;;5114584;28;20035;-73
2021/08/03 12:27:39;;;;;;;8.50;2.00;;;28.00;49.70;;;;;;5114949;28;20049;-72
2021/08/03 12:30:06;;;;;;;6.80;1.80;;;27.90;49.40;;;;;;5114819;28;20024;-73
2021/08/03 12:32:36;;;;;;;6.18;1.88;;;27.80;49.60;;;;;;5113655;28;20392;-73
2021/08/03 12:35:12;;;;;;;8.02;1.75;;;27.80;50.20;;;;;;5114026;28;20495;-73
2021/08/03 12:37:38;;;;;;;4.55;1.80;;;27.70;50.90;;;;;;5114424;28;20024;-73
2021/08/03 12:40:32;;;;;;;8.77;2.00;;;27.70;50.60;;;;;;5114417;28;20103;-73
2021/08/03 12:42:59;;;;;;;8.15;1.92;;;27.60;50.60;;;;;;5114203;28;20498;-73
2021/08/03 12:45:25;;;;;;;6.13;1.75;;;27.60;50.60;;;;;;5113995;28;20110;-72
2021/08/03 12:47:58;;;;;;;12.70;1.95;;;27.50;50.30;;;;;;5113316;28;20383;-73
2021/08/03 12:50:25;;;;;;;12.00;2.15;;;27.50;50.40;;;;;;5113722;28;20054;-74
2021/08/03 12:52:55;;;;;;;8.50;2.22;;;27.40;50.50;;;;;;5112920;28;20024;-74
2021/08/03 12:55:51;;;;;;;6.75;1.55;;;27.40;51.10;;;;;;5112532;28;20020;-74
2021/08/03 12:58:36;;;;;;;4.15;1.65;;;27.40;50.80;;;;;;5113085;28;20030;-73
2021/08/03 13:01:18;;;;;;;5.55;1.50;;;27.40;50.50;;;;;;5112594;28;20019;-73
2021/08/03 13:03:45;;;;;;;3.70;1.40;;;27.40;51.40;;;;;;5112857;28;20547;-74